Time,TemperatureF,DewpointF,PressureIn,WindDirection,WindDirectionDegrees,WindSpeedMPH,WindSpeedGustMPH,Humidity,HourlyPrecipIn,Conditions,Clouds,dailyrainin,SoftwareType,DateUTC
2013-01-14 00:03:00,68.1,65.0,30.14,SSE,159,0.0,-999.0,89,-99.99,,,0.00,weatherlink.com 1.10,2013-01-14 05:03:00,
2013-01-14 00:18:00,67.8,65.0,30.14,SSE,159,0.0,-999.0,89,-99.99,,,0.00,weatherlink.com 1.10,2013-01-14 05:18:00,
2013-01-14 00:34:00,67.6,65.0,30.14,SSE,159,0.0,-999.0,90,-99.99,,,0.00,weatherlink.com 1.10,2013-01-14 05:34:00,
2013-01-14 00:49:00,67.4,65.0,30.15,SSE,159,0.0,-999.0,90,-99.99,,,0.00,weatherlink.com 1.10,2013-01-14 05:49:00,
2013-01-14 01:03:00,67.3,64.0,30.14,SSE,159,0.0,-999.0,90,-99.99,,,0.00,weatherlink.com 1.10,2013-01-14 06:03:00,
2013-01-14 01:18:00,67.0,64.0,30.14,SSE,159,0.0,-999.0,91,-99.99,,,0.00,weatherlink.com 1.10,2013-01-14 06:18:00,
2013-01-14 01:34:00,66.6,64.0,30.15,SSE,159,0.0,-999.0,91,-99.99,,,0.00,weatherlink.com 1.10,2013-01-14 06:34:00,
2013-01-14 01:49:00,66.3,64.0,30.14,SSE,159,0.0,-999.0,92,-99.99,,,0.00,weatherlink.com 1.10,2013-01-14 06:49:00,
2013-01-14 02:04:00,66.1,64.0,30.14,SSE,159,0.0,-999.0,92,-99.99,,,0.00,weatherlink.com 1.10,2013-01-14 07:04:00,
2013-01-14 02:20:00,66.2,64.0,30.15,SSE,159,0.0,-999.0,93,-99.99,,,0.00,weatherlink.com 1.10,2013-01-14 07:20:00,
2013-01-14 02:34:00,66.1,64.0,30.15,SSE,159,0.0,-999.0,93,-99.99,,,0.00,weatherlink.com 1.10,2013-01-14 07:34:00,
2013-01-14 02:49:00,66.2,64.0,30.15,SSE,159,0.0,-999.0,93,-99.99,,,0.00,weatherlink.com 1.10,2013-01-14 07:49:00,
2013-01-14 03:04:00,65.9,64.0,30.15,SSE,159,0.0,-999.0,93,-99.99,,,0.00,weatherlink.com 1.10,2013-01-14 08:04:00,
2013-01-14 03:19:00,65.8,64.0,30.15,SSE,159,0.0,-999.0,93,-99.99,,,0.00,weatherlink.com 1.10,2013-01-14 08:19:00,
2013-01-14 03:34:00,65.3,63.0,30.15,SSE,159,0.0,-999.0,93,-99.99,,,0.00,weatherlink.com 1.10,2013-01-14 08:34:00,
2013-01-14 03:49:00,64.7,63.0,30.15,SSE,159,0.0,-999.0,93,-99.99,,,0.00,weatherlink.com 1.10,2013-01-14 08:49:00,
2013-01-14 04:04:00,64.7,63.0,30.15,SSE,159,0.0,-999.0,94,-99.99,,,0.00,weatherlink.com 1.10,2013-01-14 09:04:00,
2013-01-14 04:19:00,64.6,63.0,30.15,SSE,159,0.0,-999.0,94,-99.99,,,0.00,weatherlink.com 1.10,2013-01-14 09:19:00,
2013-01-14 04:34:00,64.7,63.0,30.15,SSE,159,0.0,-999.0,95,-99.99,,,0.00,weatherlink.com 1.10,2013-01-14 09:34:00,
2013-01-14 04:50:00,64.7,63.0,30.14,SSE,159,0.0,-999.0,95,-99.99,,,0.00,weatherlink.com 1.10,2013-01-14 09:50:00,
2013-01-14 05:04:00,64.7,63.0,30.14,SSE,159,0.0,-999.0,95,-99.99,,,0.00,weatherlink.com 1.10,2013-01-14 10:04:00,
2013-01-14 05:18:00,64.5,63.0,30.14,SSE,159,0.0,-999.0,95,-99.99,,,0.00,weatherlink.com 1.10,2013-01-14 10:18:00,
2013-01-14 05:34:00,64.2,63.0,30.14,SSE,159,0.0,-999.0,95,-99.99,,,0.00,weatherlink.com 1.10,2013-01-14 10:34:00,
2013-01-14 05:49:00,64.1,63.0,30.14,SSE,159,0.0,-999.0,96,-99.99,,,0.00,weatherlink.com 1.10,2013-01-14 10:49:00,
2013-01-14 06:04:00,63.5,62.0,30.14,SSE,159,0.0,-999.0,95,-99.99,,,0.00,weatherlink.com 1.10,2013-01-14 11:04:00,
2013-01-14 06:19:00,63.2,62.0,30.14,SSE,159,0.0,-999.0,95,-99.99,,,0.00,weatherlink.com 1.10,2013-01-14 11:19:00,
2013-01-14 06:34:00,63.0,62.0,30.14,SSE,159,0.0,-999.0,96,-99.99,,,0.00,weatherlink.com 1.10,2013-01-14 11:34:00,
2013-01-14 06:49:00,63.2,62.0,30.15,SSE,159,0.0,-999.0,96,-99.99,,,0.00,weatherlink.com 1.10,2013-01-14 11:49:00,
2013-01-14 07:04:00,63.3,62.0,30.15,SSE,158,0.0,-999.0,96,-99.99,,,0.00,weatherlink.com 1.10,2013-01-14 12:04:00,
2013-01-14 07:19:00,63.2,62.0,30.15,SSE,158,0.0,-999.0,96,-99.99,,,0.00,weatherlink.com 1.10,2013-01-14 12:19:00,
2013-01-14 07:34:00,63.3,63.0,30.16,SSE,158,0.0,-999.0,97,-99.99,,,0.00,weatherlink.com 1.10,2013-01-14 12:34:00,
2013-01-14 07:49:00,63.7,63.0,30.16,SSE,158,0.0,-999.0,97,-99.99,,,0.00,weatherlink.com 1.10,2013-01-14 12:49:00,
2013-01-14 08:04:00,64.1,63.0,30.17,SSE,158,0.0,-999.0,97,-99.99,,,0.00,weatherlink.com 1.10,2013-01-14 13:04:00,
2013-01-14 08:19:00,64.5,64.0,30.17,SSE,158,0.0,-999.0,97,-99.99,,,0.00,weatherlink.com 1.10,2013-01-14 13:19:00,
2013-01-14 08:34:00,65.0,64.0,30.18,SSE,158,0.0,-999.0,96,-99.99,,,0.00,weatherlink.com 1.10,2013-01-14 13:34:00,
2013-01-14 08:48:00,65.4,64.0,30.18,SSE,158,0.0,-999.0,96,-99.99,,,0.00,weatherlink.com 1.10,2013-01-14 13:48:00,
2013-01-14 09:03:00,65.9,65.0,30.18,SSE,158,0.0,-999.0,95,-99.99,,,0.00,weatherlink.com 1.10,2013-01-14 14:03:00,
2013-01-14 09:19:00,67.1,65.0,30.19,SSE,158,0.0,-999.0,94,-99.99,,,0.00,weatherlink.com 1.10,2013-01-14 14:19:00,
2013-01-14 09:34:00,69.0,66.0,30.20,SSE,159,2.0,-999.0,90,-99.99,,,0.00,weatherlink.com 1.10,2013-01-14 14:34:00,
2013-01-14 09:49:00,70.4,66.0,30.20,SSE,162,5.0,-999.0,86,-99.99,,,0.00,weatherlink.com 1.10,2013-01-14 14:49:00,
2013-01-14 10:04:00,71.7,66.0,30.18,SSW,213,7.0,-999.0,83,-99.99,,,0.00,weatherlink.com 1.10,2013-01-14 15:04:00,
2013-01-14 10:18:00,72.8,67.0,30.19,SSE,157,5.0,-999.0,81,-99.99,,,0.00,weatherlink.com 1.10,2013-01-14 15:18:00,
2013-01-14 10:34:00,74.4,66.0,30.19,SSW,206,5.0,-999.0,75,-99.99,,,0.00,weatherlink.com 1.10,2013-01-14 15:34:00,
2013-01-14 10:49:00,75.1,65.0,30.19,SSE,151,6.0,-999.0,71,-99.99,,,0.00,weatherlink.com 1.10,2013-01-14 15:49:00,
2013-01-14 11:04:00,75.6,65.0,30.18,SSE,153,4.0,-999.0,70,-99.99,,,0.00,weatherlink.com 1.10,2013-01-14 16:04:00,
2013-01-14 11:19:00,76.0,66.0,30.18,SSE,155,5.0,-999.0,70,-99.99,,,0.00,weatherlink.com 1.10,2013-01-14 16:19:00,
2013-01-14 11:34:00,77.0,66.0,30.16,South,178,1.0,-999.0,69,-99.99,,,0.00,weatherlink.com 1.10,2013-01-14 16:34:00,
2013-01-14 11:49:00,77.8,66.0,30.17,SSW,213,8.0,-999.0,67,-99.99,,,0.00,weatherlink.com 1.10,2013-01-14 16:49:00,
2013-01-14 12:04:00,78.1,66.0,30.16,SSE,161,5.0,-999.0,67,-99.99,,,0.00,weatherlink.com 1.10,2013-01-14 17:04:00,
2013-01-14 12:19:00,77.4,65.0,30.15,SE,142,6.0,-999.0,66,-99.99,,,0.00,weatherlink.com 1.10,2013-01-14 17:19:00,
2013-01-14 12:34:00,77.5,66.0,30.14,South,186,1.0,-999.0,68,-99.99,,,0.00,weatherlink.com 1.10,2013-01-14 17:34:00,
2013-01-14 12:49:00,78.2,66.0,30.14,SSW,207,1.0,-999.0,66,-99.99,,,0.00,weatherlink.com 1.10,2013-01-14 17:49:00,
2013-01-14 13:05:00,78.0,65.0,30.13,SSW,202,5.0,-999.0,64,-99.99,,,0.00,weatherlink.com 1.10,2013-01-14 18:05:00,
2013-01-14 13:19:00,78.2,65.0,30.13,SSE,155,1.0,-999.0,64,-99.99,,,0.00,weatherlink.com 1.10,2013-01-14 18:19:00,
2013-01-14 13:34:00,79.6,65.0,30.12,SSW,201,3.0,-999.0,62,-99.99,,,0.00,weatherlink.com 1.10,2013-01-14 18:34:00,
2013-01-14 13:49:00,79.3,65.0,30.12,SSW,192,1.0,-999.0,61,-99.99,,,0.00,weatherlink.com 1.10,2013-01-14 18:49:00,
2013-01-14 14:04:00,80.0,65.0,30.12,SE,134,0.0,-999.0,61,-99.99,,,0.00,weatherlink.com 1.10,2013-01-14 19:04:00,
2013-01-14 14:19:00,79.6,65.0,30.12,SSW,206,1.0,-999.0,61,-99.99,,,0.00,weatherlink.com 1.10,2013-01-14 19:19:00,
2013-01-14 14:34:00,79.0,65.0,30.12,South,185,3.0,-999.0,62,-99.99,,,0.00,weatherlink.com 1.10,2013-01-14 19:34:00,
2013-01-14 14:49:00,80.1,65.0,30.12,South,170,1.0,-999.0,60,-99.99,,,0.00,weatherlink.com 1.10,2013-01-14 19:49:00,
2013-01-14 15:04:00,80.7,65.0,30.12,WSW,247,4.0,-999.0,60,-99.99,,,0.00,weatherlink.com 1.10,2013-01-14 20:04:00,
2013-01-14 15:19:00,80.2,65.0,30.12,South,178,5.0,-999.0,60,-99.99,,,0.00,weatherlink.com 1.10,2013-01-14 20:19:00,
2013-01-14 15:34:00,80.5,65.0,30.12,WSW,239,6.0,-999.0,60,-99.99,,,0.00,weatherlink.com 1.10,2013-01-14 20:34:00,
2013-01-14 15:50:00,80.6,65.0,30.13,SSW,211,2.0,-999.0,60,-99.99,,,0.00,weatherlink.com 1.10,2013-01-14 20:50:00,
2013-01-14 16:04:00,80.2,65.0,30.13,SW,223,4.0,-999.0,60,-99.99,,,0.00,weatherlink.com 1.10,2013-01-14 21:04:00,
2013-01-14 16:19:00,80.3,65.0,30.13,South,190,6.0,-999.0,59,-99.99,,,0.00,weatherlink.com 1.10,2013-01-14 21:19:00,
2013-01-14 16:34:00,80.2,65.0,30.14,South,185,4.0,-999.0,60,-99.99,,,0.00,weatherlink.com 1.10,2013-01-14 21:34:00,
2013-01-14 16:49:00,79.4,65.0,30.14,South,184,2.0,-999.0,62,-99.99,,,0.00,weatherlink.com 1.10,2013-01-14 21:49:00,
2013-01-14 17:04:00,79.4,67.0,30.14,SE,146,2.0,-999.0,65,-99.99,,,0.00,weatherlink.com 1.10,2013-01-14 22:04:00,
2013-01-14 17:19:00,78.1,67.0,30.15,ESE,120,5.0,-999.0,68,-99.99,,,0.00,weatherlink.com 1.10,2013-01-14 22:19:00,
2013-01-14 17:34:00,77.3,67.0,30.15,East,95,5.0,-999.0,70,-99.99,,,0.00,weatherlink.com 1.10,2013-01-14 22:34:00,
2013-01-14 17:49:00,76.7,67.0,30.15,SE,130,4.0,-999.0,71,-99.99,,,0.00,weatherlink.com 1.10,2013-01-14 22:49:00,
2013-01-14 18:04:00,76.2,67.0,30.15,ESE,118,5.0,-999.0,73,-99.99,,,0.00,weatherlink.com 1.10,2013-01-14 23:04:00,
2013-01-14 18:19:00,75.5,67.0,30.15,ESE,113,1.0,-999.0,74,-99.99,,,0.00,weatherlink.com 1.10,2013-01-14 23:19:00,
2013-01-14 18:34:00,75.0,67.0,30.15,ESE,113,5.0,-999.0,75,-99.99,,,0.00,weatherlink.com 1.10,2013-01-14 23:34:00,
2013-01-14 18:49:00,74.4,66.0,30.16,ESE,117,1.0,-999.0,76,-99.99,,,0.00,weatherlink.com 1.10,2013-01-14 23:49:00,
2013-01-14 19:04:00,73.8,66.0,30.16,SE,128,1.0,-999.0,77,-99.99,,,0.00,weatherlink.com 1.10,2013-01-15 00:04:00,
2013-01-14 19:19:00,73.1,66.0,30.16,SE,134,1.0,-999.0,78,-99.99,,,0.00,weatherlink.com 1.10,2013-01-15 00:19:00,
2013-01-14 19:34:00,72.6,66.0,30.16,SE,125,1.0,-999.0,79,-99.99,,,0.00,weatherlink.com 1.10,2013-01-15 00:34:00,
2013-01-14 19:49:00,72.2,66.0,30.16,SE,139,0.0,-999.0,80,-99.99,,,0.00,weatherlink.com 1.10,2013-01-15 00:49:00,
2013-01-14 20:04:00,71.9,66.0,30.15,SE,144,5.0,-999.0,81,-99.99,,,0.00,weatherlink.com 1.10,2013-01-15 01:04:00,
2013-01-14 20:18:00,71.6,66.0,30.16,SE,136,5.0,-999.0,82,-99.99,,,0.00,weatherlink.com 1.10,2013-01-15 01:18:00,
2013-01-14 20:34:00,71.3,66.0,30.16,SE,135,0.0,-999.0,83,-99.99,,,0.00,weatherlink.com 1.10,2013-01-15 01:34:00,
2013-01-14 21:04:00,70.8,66.0,30.16,SSE,150,0.0,-999.0,84,-99.99,,,0.00,weatherlink.com 1.10,2013-01-15 02:04:00,
2013-01-14 21:19:00,70.6,66.0,30.16,SE,141,1.0,-999.0,85,-99.99,,,0.00,weatherlink.com 1.10,2013-01-15 02:19:00,
2013-01-14 21:34:00,70.4,66.0,30.16,SE,144,0.0,-999.0,86,-99.99,,,0.00,weatherlink.com 1.10,2013-01-15 02:34:00,
2013-01-14 21:49:00,70.3,66.0,30.16,SSE,162,5.0,-999.0,87,-99.99,,,0.00,weatherlink.com 1.10,2013-01-15 02:49:00,
2013-01-14 22:04:00,70.3,66.0,30.16,South,182,2.0,-999.0,87,-99.99,,,0.00,weatherlink.com 1.10,2013-01-15 03:04:00,
2013-01-14 22:19:00,70.2,66.0,30.16,SSE,155,4.0,-999.0,87,-99.99,,,0.00,weatherlink.com 1.10,2013-01-15 03:19:00,
2013-01-14 22:34:00,70.0,66.0,30.16,SSE,150,1.0,-999.0,88,-99.99,,,0.00,weatherlink.com 1.10,2013-01-15 03:34:00,
2013-01-14 22:49:00,69.9,66.0,30.15,SSE,155,5.0,-999.0,88,-99.99,,,0.00,weatherlink.com 1.10,2013-01-15 03:49:00,
2013-01-14 23:04:00,69.9,66.0,30.16,SSE,157,5.0,-999.0,88,-99.99,,,0.00,weatherlink.com 1.10,2013-01-15 04:04:00,
2013-01-14 23:19:00,69.8,67.0,30.15,SSE,159,2.0,-999.0,89,-99.99,,,0.00,weatherlink.com 1.10,2013-01-15 04:19:00,
2013-01-14 23:34:00,69.7,66.0,30.16,SSE,159,4.0,-999.0,89,-99.99,,,0.00,weatherlink.com 1.10,2013-01-15 04:34:00,
2013-01-14 23:50:00,69.5,66.0,30.15,SSE,159,0.0,-999.0,89,-99.99,,,0.00,weatherlink.com 1.10,2013-01-15 04:50:00,